Time;durP1;ratioP1;P1;durP2;ratioP2;P2;SDS_P1;SDS_P2;PMS_P1;PMS_P2;Temp;Humidity;BMP_temperature;BMP_pressure;BME280_temperature;BME280_humidity;BME280_pressure;Samples;Min_cycle;Max_cycle;Signal;HPM_P1;HPM_P2
2022/07/04 00:01:02;;;;;;;6.50;5.90;;;19.50;99.90;;;;;;5040486;28;20417;-52
2022/07/04 00:03:32;;;;;;;6.50;5.90;;;19.60;99.90;;;;;;5040402;28;20450;-48
2022/07/04 00:05:59;;;;;;;8.20;5.40;;;19.60;99.90;;;;;;5040106;28;20421;-51
2022/07/04 00:08:27;;;;;;;7.10;6.30;;;19.40;99.90;;;;;;5039997;28;20624;-53
2022/07/04 00:10:54;;;;;;;6.57;5.70;;;19.60;99.90;;;;;;5039817;28;20753;-51
2022/07/04 00:13:22;;;;;;;5.70;5.20;;;19.60;99.90;;;;;;5039911;28;20437;-48
2022/07/04 00:15:49;;;;;;;6.30;5.80;;;19.60;99.90;;;;;;5039814;28;20606;-51
2022/07/04 00:18:16;;;;;;;6.57;5.97;;;19.60;99.90;;;;;;5040073;28;20679;-50
2022/07/04 00:20:43;;;;;;;7.03;6.47;;;19.60;99.90;;;;;;5040218;28;20643;-50
2022/07/04 00:23:10;;;;;;;6.90;6.30;;;19.60;99.90;;;;;;5040284;28;20655;-54
2022/07/04 00:25:38;;;;;;;8.03;6.53;;;19.50;99.90;;;;;;5039795;28;20461;-53
2022/07/04 00:28:05;;;;;;;7.10;6.43;;;19.50;99.90;;;;;;5039863;28;20429;-53
2022/07/04 00:30:33;;;;;;;8.13;6.60;;;19.50;99.90;;;;;;5039692;28;20460;-53
2022/07/04 00:33:00;;;;;;;7.93;7.03;;;19.50;99.90;;;;;;5039598;28;20434;-51
2022/07/04 00:35:28;;;;;;;7.27;6.67;;;19.40;99.90;;;;;;5039192;28;20432;-49
2022/07/04 00:37:55;;;;;;;6.30;5.80;;;19.40;99.90;;;;;;5039741;28;20604;-51
2022/07/04 00:40:23;;;;;;;7.33;6.20;;;19.50;99.90;;;;;;5039747;28;20500;-49
2022/07/04 00:42:50;;;;;;;7.50;6.60;;;19.30;99.90;;;;;;5039628;28;20725;-55
2022/07/04 00:45:17;;;;;;;7.37;6.73;;;19.30;99.90;;;;;;5039695;28;20427;-50
2022/07/04 00:47:44;;;;;;;6.87;6.17;;;19.30;99.90;;;;;;5039357;28;20682;-51
2022/07/04 00:50:12;;;;;;;7.03;6.43;;;19.20;99.90;;;;;;5038793;28;20400;-51
2022/07/04 00:52:39;;;;;;;7.17;6.47;;;19.10;99.90;;;;;;5039581;28;20686;-49
2022/07/04 00:55:08;;;;;;;7.07;6.50;;;19.20;99.90;;;;;;5038952;28;20614;-52
2022/07/04 00:57:35;;;;;;;8.13;7.37;;;19.10;99.90;;;;;;5039306;28;20654;-49
2022/07/04 01:00:03;;;;;;;8.37;7.50;;;19.00;99.90;;;;;;5038936;28;20420;-54
2022/07/04 01:02:30;;;;;;;7.37;6.67;;;19.00;99.90;;;;;;5039015;28;20522;-50
2022/07/04 01:04:58;;;;;;;8.53;7.83;;;19.00;99.90;;;;;;5039096;28;20450;-50
2022/07/04 01:07:26;;;;;;;7.33;6.57;;;18.90;99.90;;;;;;5039086;28;20418;-52
2022/07/04 01:09:53;;;;;;;9.40;8.50;;;18.90;99.90;;;;;;5039215;28;20425;-52
2022/07/04 01:12:28;;;;;;;8.07;7.27;;;19.00;99.90;;;;;;5038957;28;20513;-54
2022/07/04 01:14:58;;;;;;;8.00;7.23;;;18.90;99.90;;;;;;5039136;28;20804;-51
2022/07/04 01:17:26;;;;;;;7.47;6.83;;;18.80;99.90;;;;;;5038899;28;20461;-54
2022/07/04 01:19:53;;;;;;;8.73;6.60;;;18.80;99.90;;;;;;5038901;28;20404;-52
2022/07/04 01:22:22;;;;;;;7.63;7.03;;;18.80;99.90;;;;;;5038813;28;20492;-50
2022/07/04 01:24:50;;;;;;;8.80;6.97;;;18.80;99.90;;;;;;5038721;28;20834;-54
2022/07/04 01:27:20;;;;;;;8.83;7.20;;;18.60;99.90;;;;;;5038325;28;20418;-50
2022/07/04 01:29:47;;;;;;;9.13;7.60;;;18.60;99.90;;;;;;5039160;28;20660;-54
2022/07/04 01:32:15;;;;;;;7.87;7.07;;;18.60;99.90;;;;;;5038848;28;20434;-50
2022/07/04 01:34:42;;;;;;;8.70;7.80;;;18.60;99.90;;;;;;5038769;28;20457;-47
2022/07/04 01:37:10;;;;;;;8.77;7.87;;;18.60;99.90;;;;;;5038923;28;20449;-50
2022/07/04 01:39:37;;;;;;;7.67;6.70;;;18.60;99.90;;;;;;5038786;28;20434;-53
2022/07/04 01:42:05;;;;;;;8.77;7.87;;;18.60;99.90;;;;;;5039196;28;20413;-49
2022/07/04 01:44:33;;;;;;;11.53;7.40;;;18.30;99.90;;;;;;5039003;28;20657;-50
2022/07/04 01:47:00;;;;;;;7.60;6.83;;;18.30;99.90;;;;;;5038686;28;20400;-55
2022/07/04 01:49:28;;;;;;;8.40;7.60;;;18.30;99.90;;;;;;5038845;28;20434;-53
2022/07/04 01:51:56;;;;;;;11.23;8.30;;;18.30;99.90;;;;;;5039431;28;20429;-53
2022/07/04 01:54:25;;;;;;;9.27;7.90;;;18.20;99.90;;;;;;5038918;28;20526;-53
2022/07/04 01:56:52;;;;;;;8.40;7.70;;;18.10;99.90;;;;;;5038617;28;20433;-51
2022/07/04 01:59:19;;;;;;;8.20;7.50;;;18.10;99.90;;;;;;5038475;28;20554;-51
2022/07/04 02:01:46;;;;;;;8.20;7.40;;;18.10;99.90;;;;;;5040145;28;20465;-48
2022/07/04 02:04:13;;;;;;;8.93;7.90;;;18.10;99.90;;;;;;5042339;28;20481;-48
2022/07/04 02:06:41;;;;;;;8.53;6.47;;;18.00;99.90;;;;;;5042213;28;20429;-49
2022/07/04 02:09:20;;;;;;;6.63;6.00;;;18.00;99.90;;;;;;5042447;28;20457;-52
2022/07/04 02:14:33;;;;;;;8.33;7.60;;;17.90;99.90;;;;;;5042374;28;20456;-51
2022/07/04 02:17:01;;;;;;;7.97;7.07;;;17.90;99.90;;;;;;5042098;28;20471;-55
2022/07/04 02:19:28;;;;;;;7.67;6.97;;;17.80;99.90;;;;;;5042485;28;20449;-50
2022/07/04 02:21:55;;;;;;;8.37;5.80;;;17.80;99.90;;;;;;5042379;28;20439;-49
2022/07/04 02:24:22;;;;;;;8.83;7.93;;;18.00;99.90;;;;;;5041757;28;20475;-49
2022/07/04 02:26:50;;;;;;;8.30;6.93;;;18.00;99.90;;;;;;5041688;28;20495;-52
2022/07/04 02:29:17;;;;;;;7.60;7.00;;;18.10;99.90;;;;;;5024427;28;20416;-51
2022/07/04 02:31:44;;;;;;;6.47;5.97;;;18.10;99.90;;;;;;5041841;28;20437;-54
2022/07/04 02:34:12;;;;;;;8.07;6.83;;;18.00;99.90;;;;;;5041738;28;20486;-48
2022/07/04 02:36:39;;;;;;;7.23;6.47;;;18.00;99.90;;;;;;5041972;28;20548;-48
2022/07/04 02:39:06;;;;;;;9.10;8.40;;;18.00;99.90;;;;;;5041868;28;20664;-47
2022/07/04 02:41:34;;;;;;;9.27;6.80;;;18.00;99.90;;;;;;5042043;28;20506;-50
2022/07/04 02:44:02;;;;;;;8.87;5.87;;;17.90;99.90;;;;;;5041956;28;20455;-50
2022/07/04 02:46:31;;;;;;;8.00;7.10;;;17.90;99.90;;;;;;5041861;28;20437;-52
2022/07/04 02:48:59;;;;;;;6.83;6.20;;;18.00;99.90;;;;;;5042236;28;20694;-53
2022/07/04 02:51:26;;;;;;;6.83;6.20;;;17.80;99.90;;;;;;5042758;28;20400;-55
2022/07/04 02:53:54;;;;;;;6.90;6.27;;;17.70;99.90;;;;;;5042180;28;20445;-54
2022/07/04 02:56:21;;;;;;;8.53;6.77;;;17.60;99.90;;;;;;5041726;28;20682;-53
2022/07/04 02:58:49;;;;;;;7.30;6.60;;;17.70;99.90;;;;;;5041282;28;20421;-50
2022/07/04 03:01:18;;;;;;;7.10;6.40;;;17.70;99.90;;;;;;5041335;28;20767;-50
2022/07/04 03:03:46;;;;;;;7.00;6.30;;;17.80;99.90;;;;;;5041364;28;20474;-48
2022/07/04 03:06:13;;;;;;;7.50;6.90;;;17.80;99.90;;;;;;5040891;28;20419;-49
2022/07/04 03:08:41;;;;;;;8.60;7.47;;;17.70;99.90;;;;;;5041482;28;20440;-49
2022/07/04 03:11:09;;;;;;;6.80;6.30;;;17.70;99.90;;;;;;5023489;28;20404;-50
2022/07/04 03:13:38;;;;;;;14.93;6.40;;;17.60;99.90;;;;;;5040675;28;20419;-52
2022/07/04 03:16:05;;;;;;;6.40;5.80;;;17.80;99.90;;;;;;5041354;28;20430;-54
2022/07/04 03:18:33;;;;;;;6.87;6.30;;;17.70;99.90;;;;;;5041076;28;20434;-52
2022/07/04 03:21:01;;;;;;;5.57;5.13;;;17.60;99.90;;;;;;5040798;28;20475;-49
2022/07/04 03:23:29;;;;;;;9.03;7.10;;;17.70;99.90;;;;;;5041391;28;20440;-49
2022/07/04 03:25:56;;;;;;;5.53;5.03;;;17.60;99.90;;;;;;5040167;28;20432;-49
2022/07/04 03:28:23;;;;;;;9.07;6.50;;;17.70;99.90;;;;;;5040748;28;20414;-48
2022/07/04 03:30:50;;;;;;;5.33;4.83;;;17.90;99.90;;;;;;5040495;28;20447;-50
2022/07/04 03:33:18;;;;;;;6.50;5.90;;;18.30;99.90;;;;;;5040996;28;20411;-48
2022/07/04 03:35:45;;;;;;;6.53;5.80;;;18.50;99.90;;;;;;5053253;22;20500;-59
2022/07/04 03:38:13;;;;;;;6.00;5.43;;;19.10;99.90;;;;;;5041952;28;20437;-57
2022/07/04 03:40:40;;;;;;;5.87;5.43;;;19.80;99.90;;;;;;5042270;28;20425;-58
2022/07/04 03:43:10;;;;;;;4.27;3.97;;;20.20;99.90;;;;;;5041430;28;20678;-59
2022/07/04 03:45:37;;;;;;;4.77;4.03;;;20.60;99.90;;;;;;5042066;28;20421;-58
2022/07/04 03:48:05;;;;;;;4.70;4.33;;;21.10;99.90;;;;;;5041759;28;20665;-58
2022/07/04 03:50:32;;;;;;;5.00;4.60;;;21.30;99.90;;;;;;5041995;28;20448;-54
2022/07/04 03:52:59;;;;;;;6.77;5.30;;;21.40;99.90;;;;;;5041840;28;20410;-57
2022/07/04 03:55:27;;;;;;;6.40;4.97;;;21.60;99.90;;;;;;5041828;28;20479;-58
2022/07/04 03:57:54;;;;;;;5.83;5.37;;;21.50;99.90;;;;;;5042806;28;20414;-59
2022/07/04 04:00:21;;;;;;;4.70;4.30;;;21.20;99.90;;;;;;5043198;28;20419;-59
2022/07/04 04:02:48;;;;;;;6.23;5.30;;;21.00;99.90;;;;;;5043834;28;20407;-57
2022/07/04 04:05:27;;;;;;;4.87;4.57;;;20.70;99.90;;;;;;5041734;28;20466;-57
2022/07/04 04:07:59;;;;;;;11.43;6.33;;;20.60;99.90;;;;;;5040939;28;20421;-57
2022/07/04 04:10:28;;;;;;;7.30;4.20;;;20.90;99.90;;;;;;5041549;28;20793;-54
2022/07/04 04:12:56;;;;;;;5.00;4.60;;;20.80;99.90;;;;;;5041781;28;20456;-57
2022/07/04 04:15:24;;;;;;;5.00;4.50;;;20.80;99.90;;;;;;5041355;28;20825;-57
2022/07/04 04:17:51;;;;;;;7.23;5.37;;;20.80;99.90;;;;;;5041044;28;20428;-59
2022/07/04 04:20:18;;;;;;;5.33;4.93;;;20.80;99.90;;;;;;5041463;28;20416;-58
2022/07/04 04:22:45;;;;;;;5.60;4.50;;;20.80;99.90;;;;;;5040991;28;20411;-59
2022/07/04 04:25:12;;;;;;;5.10;4.70;;;20.80;99.90;;;;;;5040184;28;20857;-58
2022/07/04 04:27:39;;;;;;;4.60;4.30;;;20.70;99.90;;;;;;5041245;28;20431;-57
2022/07/04 04:30:07;;;;;;;8.23;4.03;;;20.70;99.90;;;;;;5041033;28;20712;-55
2022/07/04 04:32:34;;;;;;;3.53;3.33;;;20.70;99.90;;;;;;5040735;28;20773;-57
2022/07/04 04:35:01;;;;;;;6.90;4.20;;;20.80;99.90;;;;;;5040715;28;20468;-57
2022/07/04 04:37:28;;;;;;;5.63;5.20;;;20.80;99.90;;;;;;5040809;28;20715;-57
2022/07/04 04:39:56;;;;;;;7.73;5.07;;;20.70;99.90;;;;;;5043525;28;20434;-59
2022/07/04 04:42:23;;;;;;;7.73;4.53;;;20.70;99.90;;;;;;5042522;28;20420;-58
2022/07/04 04:44:50;;;;;;;4.10;3.70;;;20.80;99.90;;;;;;5041214;28;20483;-57
2022/07/04 04:47:17;;;;;;;7.00;4.77;;;20.90;99.90;;;;;;5040787;28;20422;-59
2022/07/04 04:49:45;;;;;;;4.73;4.27;;;21.00;99.90;;;;;;5040896;28;20415;-56
2022/07/04 04:52:12;;;;;;;7.17;4.10;;;20.90;99.90;;;;;;5040451;28;20477;-56
2022/07/04 04:54:39;;;;;;;5.10;4.23;;;20.90;99.90;;;;;;5040592;28;20515;-57
2022/07/04 04:57:07;;;;;;;4.97;4.57;;;20.90;99.90;;;;;;5041234;28;20436;-56
2022/07/04 04:59:34;;;;;;;5.33;4.00;;;21.00;99.90;;;;;;5022970;28;20410;-58
2022/07/04 05:02:02;;;;;;;4.90;4.57;;;21.10;99.90;;;;;;5040666;28;20756;-58
2022/07/04 05:04:30;;;;;;;4.47;4.07;;;21.30;99.90;;;;;;5040608;28;20475;-56
2022/07/04 05:06:57;;;;;;;4.80;4.40;;;21.50;99.90;;;;;;5040128;28;20407;-57
2022/07/04 05:09:24;;;;;;;4.43;4.03;;;21.60;99.90;;;;;;5040313;28;20421;-59
2022/07/04 05:11:52;;;;;;;4.20;3.80;;;21.60;99.90;;;;;;5040376;28;20414;-57
2022/07/04 05:14:19;;;;;;;3.90;3.37;;;21.70;99.90;;;;;;5039892;28;20413;-58
2022/07/04 05:16:46;;;;;;;13.87;6.90;;;21.70;99.90;;;;;;5040760;28;20414;-58
2022/07/04 05:19:13;;;;;;;4.13;3.73;;;21.90;99.90;;;;;;5040479;28;20444;-57
2022/07/04 05:21:41;;;;;;;4.53;3.83;;;22.10;99.90;;;;;;5040654;28;20416;-59
2022/07/04 05:24:11;;;;;;;6.60;4.27;;;22.30;99.90;;;;;;5040243;28;20450;-54
2022/07/04 05:26:38;;;;;;;4.77;3.90;;;22.60;99.90;;;;;;5040280;28;20403;-58
2022/07/04 05:29:06;;;;;;;4.00;3.60;;;22.80;99.90;;;;;;5038162;28;20416;-57
2022/07/04 05:31:33;;;;;;;8.23;3.70;;;23.10;99.90;;;;;;5038556;28;20741;-58
2022/07/04 05:34:00;;;;;;;4.10;3.80;;;23.30;99.90;;;;;;5038322;28;20634;-56
2022/07/04 05:36:28;;;;;;;3.17;2.97;;;23.50;99.90;;;;;;5040996;28;20498;-58
2022/07/04 05:38:57;;;;;;;4.80;4.47;;;23.60;99.90;;;;;;5042667;28;20408;-56
2022/07/04 05:41:25;;;;;;;8.70;3.80;;;23.80;99.90;;;;;;5042403;28;20631;-57
2022/07/04 05:43:52;;;;;;;3.40;3.10;;;23.90;99.90;;;;;;5042755;28;20471;-57
2022/07/04 05:46:25;;;;;;;6.10;4.60;;;24.20;99.90;;;;;;5027478;28;20423;-59
2022/07/04 05:48:52;;;;;;;4.70;3.90;;;24.30;99.90;;;;;;5044924;28;20415;-59
2022/07/04 05:51:19;;;;;;;4.00;3.63;;;24.40;99.90;;;;;;5043118;28;20713;-59
2022/07/04 05:53:47;;;;;;;6.23;4.57;;;24.60;99.90;;;;;;5042391;28;20460;-59
2022/07/04 05:56:14;;;;;;;5.93;3.73;;;25.00;99.90;;;;;;5042066;28;20439;-59
2022/07/04 05:58:41;;;;;;;6.63;4.13;;;25.40;99.90;;;;;;5042197;28;20541;-60
2022/07/04 06:01:09;;;;;;;4.23;3.00;;;25.60;99.90;;;;;;5042107;28;20437;-59
2022/07/04 06:03:38;;;;;;;8.60;3.10;;;26.00;99.90;;;;;;5041874;28;20828;-59
2022/07/04 06:06:06;;;;;;;6.33;3.77;;;26.30;99.90;;;;;;5041993;28;20455;-59
2022/07/04 06:08:33;;;;;;;6.73;3.90;;;26.50;99.90;;;;;;5041617;28;20488;-59
2022/07/04 06:11:02;;;;;;;3.73;2.60;;;26.60;99.90;;;;;;5041997;28;20437;-59
2022/07/04 06:13:30;;;;;;;6.80;2.60;;;26.80;99.90;;;;;;5042069;28;20433;-60
2022/07/04 06:15:57;;;;;;;2.60;2.40;;;27.00;99.90;;;;;;5024290;28;20517;-58
2022/07/04 06:18:24;;;;;;;2.90;2.70;;;27.20;99.90;;;;;;5041798;28;20913;-59
2022/07/04 06:20:52;;;;;;;2.47;2.27;;;27.20;99.90;;;;;;5041470;28;20786;-60
2022/07/04 06:23:19;;;;;;;3.33;3.03;;;27.30;99.90;;;;;;5041599;28;20475;-58
2022/07/04 06:25:46;;;;;;;2.53;2.33;;;27.30;99.90;;;;;;5041320;28;20452;-59
2022/07/04 06:28:14;;;;;;;3.30;2.53;;;27.60;99.90;;;;;;5041174;28;20762;-58
2022/07/04 06:31:01;;;;;;;3.03;2.83;;;27.80;99.90;;;;;;5041471;28;20417;-56
2022/07/04 06:33:28;;;;;;;2.97;2.77;;;28.00;99.90;;;;;;5041397;28;20760;-58
2022/07/04 06:35:55;;;;;;;3.20;2.90;;;28.30;99.90;;;;;;5041168;28;20480;-60
2022/07/04 06:38:26;;;;;;;3.60;3.40;;;28.50;99.90;;;;;;5041277;28;20434;-57
2022/07/04 06:40:58;;;;;;;5.70;5.30;;;28.50;99.90;;;;;;5041470;28;20436;-58
2022/07/04 06:43:25;;;;;;;3.20;3.00;;;28.90;99.90;;;;;;5041336;28;20441;-58
2022/07/04 06:45:53;;;;;;;8.37;3.77;;;28.90;99.90;;;;;;5041320;28;20648;-58
2022/07/04 06:48:21;;;;;;;2.53;2.33;;;29.10;99.90;;;;;;5040796;28;20667;-59
2022/07/04 06:50:48;;;;;;;4.60;2.60;;;29.10;99.90;;;;;;5041807;28;20422;-59
2022/07/04 06:53:15;;;;;;;4.80;2.43;;;29.30;99.90;;;;;;5041696;28;20820;-59
2022/07/04 06:55:43;;;;;;;3.10;2.83;;;29.40;99.90;;;;;;5042068;28;20456;-58
2022/07/04 06:58:12;;;;;;;3.57;2.80;;;29.50;99.90;;;;;;5023471;28;20567;-59
2022/07/04 07:00:41;;;;;;;3.07;2.73;;;29.50;99.90;;;;;;5040995;28;20430;-58
2022/07/04 07:03:09;;;;;;;8.20;2.80;;;29.90;99.90;;;;;;5040880;28;20717;-56
2022/07/04 07:05:36;;;;;;;2.70;2.50;;;30.50;99.90;;;;;;5041074;28;20449;-58
2022/07/04 07:08:24;;;;;;;3.10;2.50;;;31.20;99.90;;;;;;5040706;28;20591;-58
2022/07/04 07:10:51;;;;;;;3.73;2.70;;;32.30;99.90;;;;;;5040881;28;20781;-57
2022/07/04 07:13:19;;;;;;;5.90;2.30;;;33.10;99.90;;;;;;5040743;28;20432;-59
2022/07/04 07:15:46;;;;;;;3.03;2.43;;;33.50;99.90;;;;;;5040407;28;20808;-58
2022/07/04 07:18:14;;;;;;;2.73;2.47;;;34.00;99.60;;;;;;5040340;28;20429;-58
2022/07/04 07:20:42;;;;;;;2.67;2.47;;;34.50;98.10;;;;;;5040719;28;20463;-57
2022/07/04 07:23:09;;;;;;;4.27;3.90;;;35.50;96.20;;;;;;5040305;28;20484;-58
2022/07/04 07:25:36;;;;;;;4.20;2.80;;;36.40;93.80;;;;;;5040396;28;20820;-59
2022/07/04 07:28:04;;;;;;;3.60;3.30;;;37.30;91.70;;;;;;5040275;28;20441;-58
2022/07/04 07:30:31;;;;;;;2.80;2.60;;;38.20;87.40;;;;;;5040969;28;20438;-59
2022/07/04 07:33:17;;;;;;;5.77;3.00;;;38.40;83.10;;;;;;5040457;28;20758;-59
2022/07/04 07:35:44;;;;;;;2.67;2.47;;;37.90;83.00;;;;;;5040389;28;20458;-59
2022/07/04 07:38:12;;;;;;;2.70;2.50;;;37.70;83.10;;;;;;5040011;28;20755;-57
2022/07/04 07:40:39;;;;;;;2.93;2.73;;;37.90;81.30;;;;;;5040374;28;20610;-58
2022/07/04 07:43:06;;;;;;;2.93;2.63;;;38.60;79.40;;;;;;5040252;28;20437;-59
2022/07/04 07:45:37;;;;;;;5.23;2.50;;;38.30;79.40;;;;;;5040517;28;20481;-60
2022/07/04 07:48:05;;;;;;;2.50;2.40;;;37.40;79.70;;;;;;5041027;28;20421;-59
2022/07/04 07:50:32;;;;;;;2.90;2.60;;;36.80;81.50;;;;;;5042089;28;20757;-59
2022/07/04 07:52:59;;;;;;;3.40;2.77;;;37.00;81.60;;;;;;5042095;28;20425;-59
2022/07/04 07:55:29;;;;;;;3.27;3.07;;;36.60;82.50;;;;;;5040479;28;20555;-58
2022/07/04 07:57:58;;;;;;;3.03;2.83;;;36.10;82.50;;;;;;5040147;28;20434;-59
2022/07/04 08:00:25;;;;;;;3.93;3.20;;;36.10;80.50;;;;;;5039044;28;20503;-58
2022/07/04 08:05:58;;;;;;;4.00;2.47;;;36.40;80.20;;;;;;5039460;28;20524;-59
2022/07/04 08:08:26;;;;;;;3.43;2.83;;;36.50;77.90;;;;;;5039653;28;20433;-61
2022/07/04 08:10:53;;;;;;;2.50;2.30;;;35.70;79.10;;;;;;5022187;28;20433;-59
2022/07/04 08:13:23;;;;;;;5.07;2.23;;;35.60;80.30;;;;;;5039710;28;20437;-58
2022/07/04 08:15:50;;;;;;;3.33;2.93;;;35.70;80.10;;;;;;5039429;28;20489;-61
2022/07/04 08:18:18;;;;;;;2.37;2.20;;;36.30;79.10;;;;;;5039423;28;20440;-59
2022/07/04 08:20:45;;;;;;;2.43;2.23;;;35.70;79.90;;;;;;5039534;28;20441;-59
2022/07/04 08:23:28;;;;;;;3.67;3.37;;;35.80;80.00;;;;;;5039760;28;20563;-59
2022/07/04 08:25:56;;;;;;;11.23;2.53;;;34.80;80.70;;;;;;5039225;28;20477;-57
2022/07/04 08:28:23;;;;;;;2.40;2.10;;;34.10;81.50;;;;;;5039744;28;20790;-61
2022/07/04 08:30:50;;;;;;;2.10;1.90;;;33.80;82.10;;;;;;5039622;28;20483;-61
2022/07/04 08:33:17;;;;;;;2.60;2.40;;;33.80;82.20;;;;;;5039496;28;20772;-60
2022/07/04 08:35:44;;;;;;;2.97;2.77;;;33.80;82.80;;;;;;5038956;28;20869;-60
2022/07/04 08:38:11;;;;;;;6.07;2.63;;;33.40;83.40;;;;;;5039789;28;21026;-58
2022/07/04 08:40:40;;;;;;;4.77;2.83;;;34.00;83.90;;;;;;5038583;28;20567;-56
2022/07/04 08:43:12;;;;;;;3.33;2.90;;;34.90;82.00;;;;;;5039186;28;20520;-59
2022/07/04 08:45:40;;;;;;;3.40;3.20;;;35.90;80.00;;;;;;5037868;28;20473;-62
2022/07/04 08:48:30;;;;;;;2.80;2.60;;;35.50;79.70;;;;;;5038937;28;20446;-59
2022/07/04 08:51:07;;;;;;;3.17;2.97;;;35.40;80.40;;;;;;5038419;28;20433;-59
2022/07/04 08:53:38;;;;;;;3.83;3.47;;;35.20;80.10;;;;;;5039133;28;20425;-58
2022/07/04 08:58:55;;;;;;;3.30;3.00;;;34.30;83.00;;;;;;5039035;28;20425;-59
2022/07/04 09:01:23;;;;;;;12.43;2.90;;;33.90;83.50;;;;;;5038773;28;20524;-60
2022/07/04 09:03:51;;;;;;;9.10;3.50;;;34.20;83.70;;;;;;5039239;28;20430;-58
2022/07/04 09:06:20;;;;;;;2.93;2.50;;;34.10;82.20;;;;;;5038598;28;20454;-56
2022/07/04 09:08:47;;;;;;;4.13;3.00;;;34.20;82.40;;;;;;5038834;28;20434;-58
2022/07/04 09:11:14;;;;;;;3.73;3.43;;;34.30;82.90;;;;;;5038094;28;20438;-59
2022/07/04 09:13:41;;;;;;;3.33;3.13;;;34.10;83.90;;;;;;5038833;28;20429;-58
2022/07/04 09:16:08;;;;;;;6.13;3.10;;;33.40;85.70;;;;;;5038273;28;20462;-59
2022/07/04 09:18:36;;;;;;;3.23;3.03;;;33.10;86.80;;;;;;5038860;28;20691;-56
2022/07/04 09:21:06;;;;;;;3.87;3.50;;;33.10;88.00;;;;;;5038529;28;20434;-61
2022/07/04 09:23:38;;;;;;;3.20;2.90;;;33.00;87.30;;;;;;5039186;28;20437;-59
2022/07/04 09:26:20;;;;;;;6.03;3.70;;;32.40;89.70;;;;;;5038521;28;20473;-57
2022/07/04 09:28:59;;;;;;;4.47;4.07;;;31.60;90.90;;;;;;5038747;28;20438;-59
2022/07/04 09:31:28;;;;;;;7.53;4.50;;;31.20;91.90;;;;;;5038737;28;20449;-59
2022/07/04 09:34:03;;;;;;;11.43;3.63;;;31.40;91.80;;;;;;5021668;28;20433;-59
2022/07/04 09:36:38;;;;;;;4.77;4.37;;;31.20;91.80;;;;;;5059739;22;20527;-53
2022/07/04 09:39:05;;;;;;;4.77;4.37;;;31.70;92.00;;;;;;5039409;28;20455;-52
2022/07/04 09:41:49;;;;;;;4.20;3.80;;;32.10;91.80;;;;;;5039516;28;20425;-51
2022/07/04 09:44:17;;;;;;;4.40;4.00;;;32.20;91.70;;;;;;5038804;28;20483;-52
2022/07/04 09:46:44;;;;;;;9.80;4.27;;;32.10;91.80;;;;;;5039030;28;20515;-52
2022/07/04 09:49:11;;;;;;;4.10;3.80;;;32.20;91.50;;;;;;5038976;28;20656;-53
2022/07/04 09:51:43;;;;;;;6.83;4.70;;;32.10;92.00;;;;;;5039163;28;20446;-53
2022/07/04 09:54:26;;;;;;;4.00;3.67;;;31.90;92.50;;;;;;5039286;28;20440;-50
2022/07/04 09:56:55;;;;;;;3.43;3.23;;;31.60;92.30;;;;;;5039126;28;20431;-49
2022/07/04 09:59:24;;;;;;;5.13;3.93;;;30.90;93.30;;;;;;5039122;28;20441;-50
2022/07/04 10:01:51;;;;;;;6.83;4.93;;;30.40;94.10;;;;;;5038599;28;20738;-55
2022/07/04 10:04:21;;;;;;;5.23;4.73;;;29.80;95.30;;;;;;5038734;28;20513;-53
2022/07/04 10:06:48;;;;;;;4.40;4.07;;;29.60;96.20;;;;;;5038631;28;20454;-56
2022/07/04 10:09:17;;;;;;;4.23;3.93;;;29.20;97.30;;;;;;5038621;28;20426;-53
2022/07/04 10:11:46;;;;;;;4.77;4.40;;;29.10;97.80;;;;;;5038727;28;20500;-50
2022/07/04 10:14:18;;;;;;;4.57;4.23;;;29.20;98.30;;;;;;5038374;28;20636;-50
2022/07/04 10:16:45;;;;;;;4.53;4.13;;;29.50;98.20;;;;;;5038591;28;20476;-49
2022/07/04 10:19:12;;;;;;;4.67;4.07;;;29.40;98.30;;;;;;5038344;28;20425;-54
2022/07/04 10:21:40;;;;;;;4.40;4.00;;;29.60;98.60;;;;;;5038480;28;20496;-53
2022/07/04 10:24:08;;;;;;;4.77;4.40;;;29.30;98.90;;;;;;5041428;28;20446;-54
2022/07/04 10:26:35;;;;;;;4.57;4.27;;;29.40;99.30;;;;;;5041580;28;20543;-55
2022/07/04 10:29:03;;;;;;;4.57;4.23;;;29.40;99.30;;;;;;5041863;28;20430;-51
2022/07/04 10:31:31;;;;;;;5.07;4.10;;;29.80;99.40;;;;;;5042037;28;20726;-55
2022/07/04 10:33:59;;;;;;;4.87;4.00;;;30.20;98.80;;;;;;5042264;28;20429;-54
2022/07/04 10:36:29;;;;;;;4.60;4.10;;;30.40;98.40;;;;;;5042380;28;20469;-51
2022/07/04 10:38:59;;;;;;;4.33;3.93;;;30.60;98.50;;;;;;5042832;28;20664;-48
2022/07/04 10:41:28;;;;;;;4.47;4.17;;;30.80;98.00;;;;;;5042272;28;20502;-48
2022/07/04 10:44:16;;;;;;;4.20;3.90;;;30.90;98.10;;;;;;5042877;28;20576;-48
2022/07/04 10:46:49;;;;;;;4.50;4.20;;;30.60;98.30;;;;;;5042336;28;20500;-49
2022/07/04 10:49:18;;;;;;;4.93;4.43;;;30.40;98.30;;;;;;5042486;28;20523;-50
2022/07/04 10:52:01;;;;;;;3.80;3.50;;;30.40;98.60;;;;;;5043587;28;20405;-50
2022/07/04 10:54:34;;;;;;;4.30;4.00;;;30.20;99.10;;;;;;5043967;28;20453;-51
2022/07/04 10:57:18;;;;;;;5.03;4.63;;;30.40;99.20;;;;;;5042162;28;20438;-53
2022/07/04 10:59:54;;;;;;;6.97;5.00;;;30.70;98.90;;;;;;5041509;28;20455;-52
2022/07/04 11:02:27;;;;;;;8.63;4.00;;;31.10;98.30;;;;;;5041642;28;20447;-51
2022/07/04 11:04:56;;;;;;;5.00;4.30;;;31.20;98.50;;;;;;5041360;28;20610;-54
2022/07/04 11:07:30;;;;;;;3.83;3.53;;;31.20;98.50;;;;;;5041258;28;20455;-51
2022/07/04 11:10:12;;;;;;;4.73;4.30;;;31.00;98.50;;;;;;5041143;28;20436;-53
2022/07/04 11:12:55;;;;;;;3.43;3.23;;;30.70;99.10;;;;;;5041141;28;20844;-52
2022/07/04 11:15:33;;;;;;;3.77;3.47;;;30.60;98.80;;;;;;5041115;28;20469;-55
2022/07/04 11:18:01;;;;;;;4.20;4.00;;;30.80;99.30;;;;;;5040771;28;20439;-55
2022/07/04 11:20:30;;;;;;;4.63;4.17;;;31.10;98.50;;;;;;5041079;28;20464;-51
2022/07/04 11:23:12;;;;;;;3.47;3.20;;;31.40;98.40;;;;;;5041028;28;20436;-52
2022/07/04 11:25:44;;;;;;;4.50;4.10;;;31.40;98.30;;;;;;5040890;28;20487;-52
2022/07/04 11:28:29;;;;;;;4.17;3.70;;;31.50;98.20;;;;;;5041343;28;20767;-53
2022/07/04 11:31:13;;;;;;;7.87;3.17;;;31.20;98.50;;;;;;5040666;28;20433;-49
2022/07/04 11:33:41;;;;;;;5.27;4.40;;;31.40;98.70;;;;;;5040958;28;20459;-51
2022/07/04 11:36:22;;;;;;;5.03;4.63;;;31.50;97.80;;;;;;5041267;28;20507;-49
2022/07/04 11:39:01;;;;;;;3.50;3.20;;;31.50;98.20;;;;;;5041196;28;20435;-55
2022/07/04 11:47:16;;;;;;;3.97;3.67;;;31.80;96.60;;;;;;5041031;28;20478;-55
2022/07/04 11:49:52;;;;;;;10.03;4.40;;;31.80;97.00;;;;;;5040838;28;20464;-53
2022/07/04 11:52:22;;;;;;;3.97;3.67;;;31.50;96.10;;;;;;5040166;28;20439;-53
2022/07/04 11:55:12;;;;;;;5.10;4.17;;;31.60;95.10;;;;;;5040139;28;20705;-55
2022/07/04 11:57:41;;;;;;;4.00;3.80;;;31.80;95.80;;;;;;5040912;28;20439;-50
2022/07/04 12:00:10;;;;;;;4.33;3.77;;;32.00;95.80;;;;;;5040607;28;20797;-49
2022/07/04 12:02:44;;;;;;;4.47;4.07;;;32.30;95.30;;;;;;5040540;28;20511;-52
2022/07/04 12:05:12;;;;;;;4.07;3.77;;;32.50;95.00;;;;;;5040442;28;20472;-55
2022/07/04 12:07:45;;;;;;;7.00;5.03;;;32.80;94.20;;;;;;5040379;28;20425;-53
2022/07/04 12:10:32;;;;;;;3.50;3.30;;;32.90;93.40;;;;;;5040605;28;20434;-49
2022/07/04 12:13:06;;;;;;;4.47;4.07;;;32.90;92.70;;;;;;5041170;28;20429;-53
2022/07/04 12:15:42;;;;;;;5.47;4.30;;;32.70;93.20;;;;;;5040314;28;20453;-52
2022/07/04 12:18:35;;;;;;;6.17;3.90;;;32.80;93.20;;;;;;5040493;28;20457;-54
2022/07/04 12:21:22;;;;;;;3.70;3.50;;;32.90;92.40;;;;;;5037587;28;20449;-52
2022/07/04 12:23:52;;;;;;;3.53;3.33;;;33.20;91.90;;;;;;5040391;28;20460;-51
2022/07/04 12:26:46;;;;;;;3.83;3.63;;;33.10;91.90;;;;;;5039596;28;20742;-53
2022/07/04 12:29:23;;;;;;;3.30;2.93;;;33.40;91.60;;;;;;5039978;28;20433;-53
2022/07/04 12:31:57;;;;;;;8.73;3.40;;;33.40;91.10;;;;;;5039526;28;20550;-51
2022/07/04 12:34:24;;;;;;;3.33;3.10;;;33.60;91.30;;;;;;5040192;28;20802;-54
2022/07/04 12:36:56;;;;;;;4.07;3.00;;;33.60;91.10;;;;;;5039573;28;20520;-51
2022/07/04 12:39:46;;;;;;;3.07;2.87;;;33.70;87.40;;;;;;5039775;28;20441;-50
2022/07/04 12:42:19;;;;;;;6.93;2.83;;;33.60;86.50;;;;;;5040060;28;20463;-50
2022/07/04 12:44:51;;;;;;;3.30;3.00;;;33.60;87.20;;;;;;5039486;28;20483;-54
2022/07/04 12:47:19;;;;;;;3.13;2.93;;;33.50;87.60;;;;;;5039786;28;20474;-51
2022/07/04 12:50:06;;;;;;;3.40;3.10;;;33.20;89.70;;;;;;5040155;28;20468;-53
2022/07/04 12:52:34;;;;;;;4.30;3.90;;;32.90;90.40;;;;;;5039161;28;20576;-52
2022/07/04 12:55:09;;;;;;;11.00;4.00;;;33.10;91.10;;;;;;5039387;28;20446;-56
2022/07/04 12:57:36;;;;;;;3.40;3.10;;;33.30;91.40;;;;;;5039492;28;20659;-53
2022/07/04 13:00:04;;;;;;;8.30;3.40;;;33.10;90.80;;;;;;5039399;28;20550;-54
2022/07/04 13:02:51;;;;;;;5.67;3.53;;;33.00;91.20;;;;;;5039034;28;20633;-53
2022/07/04 13:05:19;;;;;;;2.40;2.30;;;32.40;89.70;;;;;;5039129;28;20656;-52
2022/07/04 13:07:46;;;;;;;4.40;3.17;;;32.20;87.90;;;;;;5038981;28;20444;-52
2022/07/04 13:10:13;;;;;;;3.40;3.10;;;32.30;86.60;;;;;;5039237;28;20475;-51
2022/07/04 13:12:41;;;;;;;3.97;3.20;;;32.70;86.60;;;;;;5038688;28;20762;-53